sensor_id;sensor_type;location;lat;lon;timestamp;P1;durP1;ratioP1;P2;durP2;ratioP2
11943;SDS011;6031;50.220;10.122;2023-03-01T00:01:06;11.27;;;7.97;;
11943;SDS011;6031;50.220;10.122;2023-03-01T00:03:35;14.53;;;9.80;;
11943;SDS011;6031;50.220;10.122;2023-03-01T00:06:01;14.60;;;9.73;;
11943;SDS011;6031;50.220;10.122;2023-03-01T00:08:28;12.53;;;8.17;;
11943;SDS011;6031;50.220;10.122;2023-03-01T00:11:01;14.77;;;8.30;;
11943;SDS011;6031;50.220;10.122;2023-03-01T00:13:29;19.13;;;11.87;;
11943;SDS011;6031;50.220;10.122;2023-03-01T00:15:54;42.60;;;25.70;;
11943;SDS011;6031;50.220;10.122;2023-03-01T00:18:20;82.70;;;47.67;;
11943;SDS011;6031;50.220;10.122;2023-03-01T00:20:50;58.70;;;35.90;;
11943;SDS011;6031;50.220;10.122;2023-03-01T00:23:17;52.40;;;32.27;;
11943;SDS011;6031;50.220;10.122;2023-03-01T00:25:43;27.37;;;15.97;;
11943;SDS011;6031;50.220;10.122;2023-03-01T00:28:09;21.17;;;12.30;;
11943;SDS011;6031;50.220;10.122;2023-03-01T00:30:34;14.33;;;9.83;;
11943;SDS011;6031;50.220;10.122;2023-03-01T00:33:00;16.03;;;10.93;;
11943;SDS011;6031;50.220;10.122;2023-03-01T00:35:25;17.53;;;10.07;;
11943;SDS011;6031;50.220;10.122;2023-03-01T00:37:51;13.40;;;10.17;;
11943;SDS011;6031;50.220;10.122;2023-03-01T00:40:22;13.50;;;9.70;;
11943;SDS011;6031;50.220;10.122;2023-03-01T00:42:48;13.30;;;9.33;;
11943;SDS011;6031;50.220;10.122;2023-03-01T00:45:14;15.53;;;11.60;;
11943;SDS011;6031;50.220;10.122;2023-03-01T00:47:40;15.23;;;11.00;;
11943;SDS011;6031;50.220;10.122;2023-03-01T00:50:05;18.03;;;11.63;;
11943;SDS011;6031;50.220;10.122;2023-03-01T00:52:31;26.37;;;15.07;;
11943;SDS011;6031;50.220;10.122;2023-03-01T00:54:57;20.77;;;13.10;;
11943;SDS011;6031;50.220;10.122;2023-03-01T00:57:23;18.73;;;11.27;;
11943;SDS011;6031;50.220;10.122;2023-03-01T00:59:48;15.67;;;10.33;;
11943;SDS011;6031;50.220;10.122;2023-03-01T01:02:14;14.50;;;10.27;;
11943;SDS011;6031;50.220;10.122;2023-03-01T01:04:40;17.87;;;11.50;;
11943;SDS011;6031;50.220;10.122;2023-03-01T01:07:05;16.03;;;10.93;;
11943;SDS011;6031;50.220;10.122;2023-03-01T01:09:31;14.90;;;10.50;;
11943;SDS011;6031;50.220;10.122;2023-03-01T01:11:57;14.83;;;10.10;;
11943;SDS011;6031;50.220;10.122;2023-03-01T01:14:22;16.20;;;10.23;;
11943;SDS011;6031;50.220;10.122;2023-03-01T01:16:48;17.83;;;11.00;;
11943;SDS011;6031;50.220;10.122;2023-03-01T01:19:13;19.30;;;12.73;;
11943;SDS011;6031;50.220;10.122;2023-03-01T01:21:40;15.50;;;9.73;;
11943;SDS011;6031;50.220;10.122;2023-03-01T01:24:08;16.27;;;9.50;;
11943;SDS011;6031;50.220;10.122;2023-03-01T01:26:33;18.00;;;11.17;;
11943;SDS011;6031;50.220;10.122;2023-03-01T01:29:00;14.77;;;10.23;;
11943;SDS011;6031;50.220;10.122;2023-03-01T01:31:27;11.47;;;8.77;;
11943;SDS011;6031;50.220;10.122;2023-03-01T01:33:53;14.03;;;10.30;;
11943;SDS011;6031;50.220;10.122;2023-03-01T01:36:20;15.07;;;10.27;;
11943;SDS011;6031;50.220;10.122;2023-03-01T01:38:45;12.97;;;9.93;;
11943;SDS011;6031;50.220;10.122;2023-03-01T01:41:11;13.90;;;9.03;;
11943;SDS011;6031;50.220;10.122;2023-03-01T01:43:38;15.10;;;10.00;;
11943;SDS011;6031;50.220;10.122;2023-03-01T01:46:10;12.87;;;8.20;;
11943;SDS011;6031;50.220;10.122;2023-03-01T01:49:02;14.53;;;7.93;;
11943;SDS011;6031;50.220;10.122;2023-03-01T01:51:37;17.30;;;9.87;;
11943;SDS011;6031;50.220;10.122;2023-03-01T01:54:11;13.03;;;8.90;;
11943;SDS011;6031;50.220;10.122;2023-03-01T01:56:41;13.17;;;9.40;;
11943;SDS011;6031;50.220;10.122;2023-03-01T01:59:11;12.27;;;8.83;;
11943;SDS011;6031;50.220;10.122;2023-03-01T02:01:37;13.97;;;10.30;;
11943;SDS011;6031;50.220;10.122;2023-03-01T02:04:03;13.73;;;9.60;;
11943;SDS011;6031;50.220;10.122;2023-03-01T02:06:32;16.20;;;10.93;;
11943;SDS011;6031;50.220;10.122;2023-03-01T02:09:04;13.57;;;10.47;;
11943;SDS011;6031;50.220;10.122;2023-03-01T02:11:33;13.63;;;10.20;;
11943;SDS011;6031;50.220;10.122;2023-03-01T02:13:59;18.70;;;15.00;;
11943;SDS011;6031;50.220;10.122;2023-03-01T02:16:25;22.90;;;16.77;;
11943;SDS011;6031;50.220;10.122;2023-03-01T02:18:51;18.80;;;11.80;;
11943;SDS011;6031;50.220;10.122;2023-03-01T02:24:10;14.73;;;10.20;;
11943;SDS011;6031;50.220;10.122;2023-03-01T02:26:56;15.23;;;10.93;;
11943;SDS011;6031;50.220;10.122;2023-03-01T02:29:23;13.30;;;8.43;;
11943;SDS011;6031;50.220;10.122;2023-03-01T02:31:49;13.73;;;8.57;;
11943;SDS011;6031;50.220;10.122;2023-03-01T02:34:18;13.73;;;8.87;;
11943;SDS011;6031;50.220;10.122;2023-03-01T02:36:56;12.47;;;10.00;;
11943;SDS011;6031;50.220;10.122;2023-03-01T02:39:26;15.07;;;9.27;;
11943;SDS011;6031;50.220;10.122;2023-03-01T02:41:56;14.83;;;10.20;;
11943;SDS011;6031;50.220;10.122;2023-03-01T02:44:22;12.03;;;8.20;;
11943;SDS011;6031;50.220;10.122;2023-03-01T02:46:50;11.43;;;8.93;;
11943;SDS011;6031;50.220;10.122;2023-03-01T02:49:21;11.70;;;9.07;;
11943;SDS011;6031;50.220;10.122;2023-03-01T02:52:05;15.00;;;8.80;;
11943;SDS011;6031;50.220;10.122;2023-03-01T02:54:43;12.33;;;8.47;;
11943;SDS011;6031;50.220;10.122;2023-03-01T02:57:18;13.90;;;9.83;;
11943;SDS011;6031;50.220;10.122;2023-03-01T02:59:46;9.43;;;7.47;;
11943;SDS011;6031;50.220;10.122;2023-03-01T03:02:31;11.70;;;7.87;;
11943;SDS011;6031;50.220;10.122;2023-03-01T03:05:06;12.83;;;8.83;;
11943;SDS011;6031;50.220;10.122;2023-03-01T03:07:35;11.57;;;8.80;;
11943;SDS011;6031;50.220;10.122;2023-03-01T03:10:03;11.83;;;8.33;;
11943;SDS011;6031;50.220;10.122;2023-03-01T03:12:30;11.73;;;7.90;;
11943;SDS011;6031;50.220;10.122;2023-03-01T03:14:55;13.70;;;9.67;;
11943;SDS011;6031;50.220;10.122;2023-03-01T03:17:21;13.63;;;8.47;;
11943;SDS011;6031;50.220;10.122;2023-03-01T03:19:46;13.57;;;9.53;;
11943;SDS011;6031;50.220;10.122;2023-03-01T03:22:12;12.13;;;9.13;;
11943;SDS011;6031;50.220;10.122;2023-03-01T03:24:38;11.50;;;7.87;;
11943;SDS011;6031;50.220;10.122;2023-03-01T03:27:04;11.43;;;7.80;;
11943;SDS011;6031;50.220;10.122;2023-03-01T03:29:30;12.87;;;8.13;;
11943;SDS011;6031;50.220;10.122;2023-03-01T03:31:55;15.77;;;9.70;;
11943;SDS011;6031;50.220;10.122;2023-03-01T03:34:21;12.40;;;9.27;;
11943;SDS011;6031;50.220;10.122;2023-03-01T03:36:46;10.23;;;7.57;;
11943;SDS011;6031;50.220;10.122;2023-03-01T03:39:12;13.43;;;8.17;;
11943;SDS011;6031;50.220;10.122;2023-03-01T03:41:37;14.43;;;9.37;;
11943;SDS011;6031;50.220;10.122;2023-03-01T03:44:03;11.37;;;8.00;;
11943;SDS011;6031;50.220;10.122;2023-03-01T03:46:29;10.10;;;7.50;;
11943;SDS011;6031;50.220;10.122;2023-03-01T03:48:55;11.20;;;7.93;;
11943;SDS011;6031;50.220;10.122;2023-03-01T03:51:20;14.93;;;9.77;;
11943;SDS011;6031;50.220;10.122;2023-03-01T03:53:47;10.50;;;7.57;;
11943;SDS011;6031;50.220;10.122;2023-03-01T03:56:13;10.10;;;7.53;;
11943;SDS011;6031;50.220;10.122;2023-03-01T03:58:39;11.20;;;8.70;;
11943;SDS011;6031;50.220;10.122;2023-03-01T04:01:04;13.53;;;9.43;;
11943;SDS011;6031;50.220;10.122;2023-03-01T04:03:31;15.00;;;9.30;;
11943;SDS011;6031;50.220;10.122;2023-03-01T04:05:59;11.37;;;8.27;;
11943;SDS011;6031;50.220;10.122;2023-03-01T04:08:25;16.90;;;9.67;;
11943;SDS011;6031;50.220;10.122;2023-03-01T04:10:52;15.97;;;9.43;;
11943;SDS011;6031;50.220;10.122;2023-03-01T04:13:22;11.30;;;8.30;;
11943;SDS011;6031;50.220;10.122;2023-03-01T04:15:50;10.63;;;8.60;;
11943;SDS011;6031;50.220;10.122;2023-03-01T04:18:18;12.57;;;9.40;;
11943;SDS011;6031;50.220;10.122;2023-03-01T04:20:45;13.93;;;7.27;;
11943;SDS011;6031;50.220;10.122;2023-03-01T04:23:15;14.03;;;9.50;;
11943;SDS011;6031;50.220;10.122;2023-03-01T04:25:52;13.33;;;8.80;;
11943;SDS011;6031;50.220;10.122;2023-03-01T04:28:23;14.10;;;9.83;;
11943;SDS011;6031;50.220;10.122;2023-03-01T04:30:51;12.33;;;8.80;;
11943;SDS011;6031;50.220;10.122;2023-03-01T04:33:18;15.80;;;9.27;;
11943;SDS011;6031;50.220;10.122;2023-03-01T04:35:43;13.90;;;9.17;;
11943;SDS011;6031;50.220;10.122;2023-03-01T04:38:09;17.50;;;9.53;;
11943;SDS011;6031;50.220;10.122;2023-03-01T04:40:35;16.07;;;9.60;;
11943;SDS011;6031;50.220;10.122;2023-03-01T04:43:02;11.57;;;7.83;;
11943;SDS011;6031;50.220;10.122;2023-03-01T04:45:28;8.60;;;6.90;;
11943;SDS011;6031;50.220;10.122;2023-03-01T04:47:53;15.20;;;9.23;;
11943;SDS011;6031;50.220;10.122;2023-03-01T04:50:19;12.37;;;8.90;;
11943;SDS011;6031;50.220;10.122;2023-03-01T04:52:46;14.33;;;9.37;;
11943;SDS011;6031;50.220;10.122;2023-03-01T04:55:12;12.63;;;8.80;;
11943;SDS011;6031;50.220;10.122;2023-03-01T04:57:38;12.93;;;9.53;;
11943;SDS011;6031;50.220;10.122;2023-03-01T05:00:05;14.10;;;10.37;;
11943;SDS011;6031;50.220;10.122;2023-03-01T05:02:45;10.70;;;7.87;;
11943;SDS011;6031;50.220;10.122;2023-03-01T05:05:18;11.27;;;8.67;;
11943;SDS011;6031;50.220;10.122;2023-03-01T05:07:45;15.53;;;9.50;;
11943;SDS011;6031;50.220;10.122;2023-03-01T05:10:10;12.73;;;9.37;;
11943;SDS011;6031;50.220;10.122;2023-03-01T05:12:36;13.57;;;9.07;;
11943;SDS011;6031;50.220;10.122;2023-03-01T05:15:02;17.50;;;9.77;;
11943;SDS011;6031;50.220;10.122;2023-03-01T05:17:31;12.13;;;8.37;;
11943;SDS011;6031;50.220;10.122;2023-03-01T05:19:58;14.30;;;10.10;;
11943;SDS011;6031;50.220;10.122;2023-03-01T05:22:24;19.47;;;11.17;;
11943;SDS011;6031;50.220;10.122;2023-03-01T05:24:50;17.10;;;11.57;;
11943;SDS011;6031;50.220;10.122;2023-03-01T05:27:15;18.53;;;10.90;;
11943;SDS011;6031;50.220;10.122;2023-03-01T05:29:41;16.73;;;10.93;;
11943;SDS011;6031;50.220;10.122;2023-03-01T05:32:06;14.40;;;10.23;;
11943;SDS011;6031;50.220;10.122;2023-03-01T05:34:34;12.63;;;7.40;;
11943;SDS011;6031;50.220;10.122;2023-03-01T05:37:01;12.10;;;8.33;;
11943;SDS011;6031;50.220;10.122;2023-03-01T05:39:28;15.03;;;10.10;;
11943;SDS011;6031;50.220;10.122;2023-03-01T05:41:58;15.57;;;10.17;;
11943;SDS011;6031;50.220;10.122;2023-03-01T05:44:26;12.63;;;9.13;;
11943;SDS011;6031;50.220;10.122;2023-03-01T05:46:53;16.27;;;10.63;;
11943;SDS011;6031;50.220;10.122;2023-03-01T05:49:19;14.00;;;10.33;;
11943;SDS011;6031;50.220;10.122;2023-03-01T05:51:50;15.77;;;10.07;;
11943;SDS011;6031;50.220;10.122;2023-03-01T05:54:16;14.73;;;10.47;;
11943;SDS011;6031;50.220;10.122;2023-03-01T05:56:43;12.70;;;8.43;;
11943;SDS011;6031;50.220;10.122;2023-03-01T05:59:09;16.73;;;12.30;;
11943;SDS011;6031;50.220;10.122;2023-03-01T06:01:35;16.97;;;13.07;;
11943;SDS011;6031;50.220;10.122;2023-03-01T06:04:01;17.70;;;12.30;;
11943;SDS011;6031;50.220;10.122;2023-03-01T06:06:28;15.03;;;9.70;;
11943;SDS011;6031;50.220;10.122;2023-03-01T06:08:54;17.17;;;11.60;;
11943;SDS011;6031;50.220;10.122;2023-03-01T06:11:20;22.30;;;13.67;;
11943;SDS011;6031;50.220;10.122;2023-03-01T06:13:46;12.87;;;9.60;;
11943;SDS011;6031;50.220;10.122;2023-03-01T06:16:12;17.50;;;9.77;;
11943;SDS011;6031;50.220;10.122;2023-03-01T06:18:39;13.00;;;8.53;;
11943;SDS011;6031;50.220;10.122;2023-03-01T06:21:05;18.23;;;11.70;;
11943;SDS011;6031;50.220;10.122;2023-03-01T06:23:32;17.77;;;10.23;;
11943;SDS011;6031;50.220;10.122;2023-03-01T06:25:58;16.60;;;12.00;;
11943;SDS011;6031;50.220;10.122;2023-03-01T06:28:24;15.00;;;10.53;;
11943;SDS011;6031;50.220;10.122;2023-03-01T06:30:49;19.27;;;11.97;;
11943;SDS011;6031;50.220;10.122;2023-03-01T06:33:16;19.30;;;11.57;;
11943;SDS011;6031;50.220;10.122;2023-03-01T06:35:44;14.37;;;9.80;;
11943;SDS011;6031;50.220;10.122;2023-03-01T06:38:13;17.27;;;11.53;;
11943;SDS011;6031;50.220;10.122;2023-03-01T06:40:43;18.40;;;11.37;;
11943;SDS011;6031;50.220;10.122;2023-03-01T06:43:10;24.83;;;14.23;;
11943;SDS011;6031;50.220;10.122;2023-03-01T06:45:36;24.77;;;13.47;;
11943;SDS011;6031;50.220;10.122;2023-03-01T06:48:02;19.17;;;12.10;;
11943;SDS011;6031;50.220;10.122;2023-03-01T06:50:29;16.60;;;10.87;;
11943;SDS011;6031;50.220;10.122;2023-03-01T06:52:55;18.07;;;11.60;;
11943;SDS011;6031;50.220;10.122;2023-03-01T06:55:21;20.57;;;12.03;;
11943;SDS011;6031;50.220;10.122;2023-03-01T06:57:47;18.63;;;12.47;;
11943;SDS011;6031;50.220;10.122;2023-03-01T07:00:13;19.53;;;12.67;;
11943;SDS011;6031;50.220;10.122;2023-03-01T07:02:39;18.87;;;12.07;;
11943;SDS011;6031;50.220;10.122;2023-03-01T07:05:04;20.43;;;12.70;;
11943;SDS011;6031;50.220;10.122;2023-03-01T07:07:30;23.67;;;14.83;;
11943;SDS011;6031;50.220;10.122;2023-03-01T07:09:56;17.90;;;12.33;;
11943;SDS011;6031;50.220;10.122;2023-03-01T07:12:21;20.30;;;12.20;;
11943;SDS011;6031;50.220;10.122;2023-03-01T07:14:47;22.07;;;12.70;;
11943;SDS011;6031;50.220;10.122;2023-03-01T07:17:12;19.13;;;11.80;;
11943;SDS011;6031;50.220;10.122;2023-03-01T07:19:38;19.97;;;11.63;;
11943;SDS011;6031;50.220;10.122;2023-03-01T07:22:03;16.77;;;11.83;;
11943;SDS011;6031;50.220;10.122;2023-03-01T07:24:29;21.17;;;12.40;;
11943;SDS011;6031;50.220;10.122;2023-03-01T07:26:54;20.67;;;11.40;;
11943;SDS011;6031;50.220;10.122;2023-03-01T07:29:20;15.80;;;10.67;;
11943;SDS011;6031;50.220;10.122;2023-03-01T07:31:46;16.17;;;11.03;;
11943;SDS011;6031;50.220;10.122;2023-03-01T07:34:11;16.97;;;12.13;;
11943;SDS011;6031;50.220;10.122;2023-03-01T07:36:37;15.30;;;10.53;;
11943;SDS011;6031;50.220;10.122;2023-03-01T07:39:04;16.60;;;10.30;;
11943;SDS011;6031;50.220;10.122;2023-03-01T07:41:29;16.27;;;11.50;;
11943;SDS011;6031;50.220;10.122;2023-03-01T07:43:55;16.67;;;11.30;;
11943;SDS011;6031;50.220;10.122;2023-03-01T07:46:21;16.40;;;10.80;;
11943;SDS011;6031;50.220;10.122;2023-03-01T07:48:46;17.53;;;11.43;;
11943;SDS011;6031;50.220;10.122;2023-03-01T07:51:12;14.63;;;10.10;;
11943;SDS011;6031;50.220;10.122;2023-03-01T07:53:38;11.90;;;10.03;;
11943;SDS011;6031;50.220;10.122;2023-03-01T07:56:04;16.73;;;10.57;;
11943;SDS011;6031;50.220;10.122;2023-03-01T07:58:30;20.90;;;10.93;;
11943;SDS011;6031;50.220;10.122;2023-03-01T08:00:57;13.40;;;9.43;;
11943;SDS011;6031;50.220;10.122;2023-03-01T08:03:30;14.90;;;9.10;;
11943;SDS011;6031;50.220;10.122;2023-03-01T08:05:55;17.83;;;11.30;;
11943;SDS011;6031;50.220;10.122;2023-03-01T08:08:23;13.53;;;8.13;;
11943;SDS011;6031;50.220;10.122;2023-03-01T08:10:49;15.13;;;10.40;;
11943;SDS011;6031;50.220;10.122;2023-03-01T08:13:15;17.50;;;10.60;;
11943;SDS011;6031;50.220;10.122;2023-03-01T08:15:40;18.30;;;10.70;;
11943;SDS011;6031;50.220;10.122;2023-03-01T08:18:06;12.43;;;8.30;;
11943;SDS011;6031;50.220;10.122;2023-03-01T08:20:31;14.27;;;8.23;;
11943;SDS011;6031;50.220;10.122;2023-03-01T08:22:57;14.17;;;9.80;;
11943;SDS011;6031;50.220;10.122;2023-03-01T08:25:23;14.90;;;9.53;;
11943;SDS011;6031;50.220;10.122;2023-03-01T08:27:48;14.87;;;9.67;;
11943;SDS011;6031;50.220;10.122;2023-03-01T08:30:14;13.03;;;9.07;;
11943;SDS011;6031;50.220;10.122;2023-03-01T08:32:40;11.70;;;8.50;;
11943;SDS011;6031;50.220;10.122;2023-03-01T08:35:05;13.60;;;9.13;;
11943;SDS011;6031;50.220;10.122;2023-03-01T08:37:31;14.30;;;8.63;;
11943;SDS011;6031;50.220;10.122;2023-03-01T08:39:58;10.77;;;8.53;;
11943;SDS011;6031;50.220;10.122;2023-03-01T08:42:24;11.03;;;7.83;;
11943;SDS011;6031;50.220;10.122;2023-03-01T08:44:50;10.60;;;8.17;;
11943;SDS011;6031;50.220;10.122;2023-03-01T08:47:16;12.00;;;7.80;;
11943;SDS011;6031;50.220;10.122;2023-03-01T08:49:41;8.97;;;7.43;;
11943;SDS011;6031;50.220;10.122;2023-03-01T08:52:07;11.97;;;8.37;;
11943;SDS011;6031;50.220;10.122;2023-03-01T08:54:32;12.73;;;8.97;;
11943;SDS011;6031;50.220;10.122;2023-03-01T08:56:58;14.70;;;7.27;;
11943;SDS011;6031;50.220;10.122;2023-03-01T08:59:27;14.53;;;8.73;;
11943;SDS011;6031;50.220;10.122;2023-03-01T09:01:54;9.93;;;7.40;;
11943;SDS011;6031;50.220;10.122;2023-03-01T09:04:19;8.90;;;7.43;;
11943;SDS011;6031;50.220;10.122;2023-03-01T09:06:45;9.33;;;7.57;;
11943;SDS011;6031;50.220;10.122;2023-03-01T09:09:12;10.23;;;7.50;;
11943;SDS011;6031;50.220;10.122;2023-03-01T09:11:40;9.37;;;7.17;;
11943;SDS011;6031;50.220;10.122;2023-03-01T09:14:06;8.77;;;6.90;;
11943;SDS011;6031;50.220;10.122;2023-03-01T09:16:31;12.53;;;8.53;;
11943;SDS011;6031;50.220;10.122;2023-03-01T09:19:00;12.07;;;7.77;;
11943;SDS011;6031;50.220;10.122;2023-03-01T09:21:26;14.17;;;7.30;;
11943;SDS011;6031;50.220;10.122;2023-03-01T09:23:52;13.70;;;8.63;;
11943;SDS011;6031;50.220;10.122;2023-03-01T09:26:19;12.50;;;9.03;;
11943;SDS011;6031;50.220;10.122;2023-03-01T09:28:46;11.07;;;8.83;;
11943;SDS011;6031;50.220;10.122;2023-03-01T09:31:14;9.57;;;7.87;;
11943;SDS011;6031;50.220;10.122;2023-03-01T09:33:41;10.87;;;7.93;;
11943;SDS011;6031;50.220;10.122;2023-03-01T09:36:11;9.67;;;7.17;;
11943;SDS011;6031;50.220;10.122;2023-03-01T09:38:38;11.67;;;8.47;;
11943;SDS011;6031;50.220;10.122;2023-03-01T09:41:09;13.20;;;9.40;;
11943;SDS011;6031;50.220;10.122;2023-03-01T09:46:19;13.37;;;8.73;;
11943;SDS011;6031;50.220;10.122;2023-03-01T09:48:57;20.83;;;11.10;;
11943;SDS011;6031;50.220;10.122;2023-03-01T09:51:32;11.90;;;8.50;;
11943;SDS011;6031;50.220;10.122;2023-03-01T09:54:00;9.67;;;7.87;;
11943;SDS011;6031;50.220;10.122;2023-03-01T09:56:36;14.00;;;9.23;;
11943;SDS011;6031;50.220;10.122;2023-03-01T09:59:50;10.77;;;6.73;;
11943;SDS011;6031;50.220;10.122;2023-03-01T10:05:14;14.17;;;9.17;;
11943;SDS011;6031;50.220;10.122;2023-03-01T10:07:59;13.50;;;8.87;;
11943;SDS011;6031;50.220;10.122;2023-03-01T10:10:41;11.80;;;8.73;;
11943;SDS011;6031;50.220;10.122;2023-03-01T10:13:19;11.70;;;8.73;;
11943;SDS011;6031;50.220;10.122;2023-03-01T10:16:26;10.77;;;8.97;;
11943;SDS011;6031;50.220;10.122;2023-03-01T10:18:53;10.67;;;8.33;;
11943;SDS011;6031;50.220;10.122;2023-03-01T10:21:25;10.00;;;8.33;;
11943;SDS011;6031;50.220;10.122;2023-03-01T10:23:53;9.37;;;7.63;;
11943;SDS011;6031;50.220;10.122;2023-03-01T10:26:28;9.77;;;8.23;;
11943;SDS011;6031;50.220;10.122;2023-03-01T10:29:02;12.47;;;9.00;;
11943;SDS011;6031;50.220;10.122;2023-03-01T10:31:42;12.20;;;8.57;;
11943;SDS011;6031;50.220;10.122;2023-03-01T10:34:32;14.03;;;10.57;;
11943;SDS011;6031;50.220;10.122;2023-03-01T10:37:01;13.57;;;9.40;;
11943;SDS011;6031;50.220;10.122;2023-03-01T10:39:35;13.47;;;8.00;;
11943;SDS011;6031;50.220;10.122;2023-03-01T10:42:02;11.47;;;8.97;;
11943;SDS011;6031;50.220;10.122;2023-03-01T10:47:21;13.43;;;9.30;;
11943;SDS011;6031;50.220;10.122;2023-03-01T10:49:54;12.43;;;8.13;;
11943;SDS011;6031;50.220;10.122;2023-03-01T10:52:24;10.07;;;7.97;;
11943;SDS011;6031;50.220;10.122;2023-03-01T10:54:56;9.60;;;7.87;;
11943;SDS011;6031;50.220;10.122;2023-03-01T10:57:41;9.80;;;7.83;;
11943;SDS011;6031;50.220;10.122;2023-03-01T11:05:24;11.77;;;8.80;;
11943;SDS011;6031;50.220;10.122;2023-03-01T11:07:55;12.67;;;8.90;;
11943;SDS011;6031;50.220;10.122;2023-03-01T11:10:23;10.90;;;8.43;;
11943;SDS011;6031;50.220;10.122;2023-03-01T11:12:50;11.60;;;8.37;;
11943;SDS011;6031;50.220;10.122;2023-03-01T11:15:20;11.20;;;7.93;;
11943;SDS011;6031;50.220;10.122;2023-03-01T11:17:51;9.27;;;7.60;;
11943;SDS011;6031;50.220;10.122;2023-03-01T11:20:52;10.63;;;7.47;;
11943;SDS011;6031;50.220;10.122;2023-03-01T11:23:12;10.13;;;8.90;;
11943;SDS011;6031;50.220;10.122;2023-03-01T11:25:42;7.87;;;5.30;;
11943;SDS011;6031;50.220;10.122;2023-03-01T11:28:12;10.07;;;8.13;;
11943;SDS011;6031;50.220;10.122;2023-03-01T11:33:33;7.93;;;6.60;;
11943;SDS011;6031;50.220;10.122;2023-03-01T11:36:01;9.50;;;7.93;;
11943;SDS011;6031;50.220;10.122;2023-03-01T11:38:32;9.73;;;7.73;;
11943;SDS011;6031;50.220;10.122;2023-03-01T11:41:08;7.70;;;6.50;;
11943;SDS011;6031;50.220;10.122;2023-03-01T11:54:50;8.53;;;6.17;;
11943;SDS011;6031;50.220;10.122;2023-03-01T12:12:20;10.17;;;7.70;;
11943;SDS011;6031;50.220;10.122;2023-03-01T12:21:07;9.37;;;6.97;;
11943;SDS011;6031;50.220;10.122;2023-03-01T12:23:58;7.07;;;6.37;;
11943;SDS011;6031;50.220;10.122;2023-03-01T12:26:50;11.00;;;7.03;;
11943;SDS011;6031;50.220;10.122;2023-03-01T12:29:29;14.20;;;6.80;;
11943;SDS011;6031;50.220;10.122;2023-03-01T12:32:18;7.17;;;5.10;;
11943;SDS011;6031;50.220;10.122;2023-03-01T12:40:46;8.30;;;6.13;;
11943;SDS011;6031;50.220;10.122;2023-03-01T12:48:58;6.87;;;5.93;;
11943;SDS011;6031;50.220;10.122;2023-03-01T12:51:41;8.57;;;6.47;;
11943;SDS011;6031;50.220;10.122;2023-03-01T12:54:15;9.60;;;5.97;;
11943;SDS011;6031;50.220;10.122;2023-03-01T12:56:51;6.30;;;5.70;;
11943;SDS011;6031;50.220;10.122;2023-03-01T12:59:26;8.13;;;6.03;;
11943;SDS011;6031;50.220;10.122;2023-03-01T13:02:24;6.97;;;6.03;;
11943;SDS011;6031;50.220;10.122;2023-03-01T13:07:36;6.57;;;4.23;;
11943;SDS011;6031;50.220;10.122;2023-03-01T13:10:23;5.40;;;4.67;;
11943;SDS011;6031;50.220;10.122;2023-03-01T13:15:36;5.90;;;5.30;;
11943;SDS011;6031;50.220;10.122;2023-03-01T13:18:27;7.50;;;5.53;;
11943;SDS011;6031;50.220;10.122;2023-03-01T13:20:53;6.70;;;5.27;;
11943;SDS011;6031;50.220;10.122;2023-03-01T13:31:03;7.97;;;5.50;;
11943;SDS011;6031;50.220;10.122;2023-03-01T13:35:58;4.80;;;4.40;;
11943;SDS011;6031;50.220;10.122;2023-03-01T13:41:03;6.53;;;5.50;;
11943;SDS011;6031;50.220;10.122;2023-03-01T13:43:36;6.43;;;5.40;;
11943;SDS011;6031;50.220;10.122;2023-03-01T13:46:24;6.03;;;4.77;;
11943;SDS011;6031;50.220;10.122;2023-03-01T13:48:50;9.90;;;5.73;;
11943;SDS011;6031;50.220;10.122;2023-03-01T13:51:20;8.03;;;5.33;;
11943;SDS011;6031;50.220;10.122;2023-03-01T13:53:49;6.03;;;5.03;;
11943;SDS011;6031;50.220;10.122;2023-03-01T13:56:17;7.10;;;5.93;;
11943;SDS011;6031;50.220;10.122;2023-03-01T13:58:59;7.43;;;5.47;;
11943;SDS011;6031;50.220;10.122;2023-03-01T14:01:30;6.87;;;5.43;;
11943;SDS011;6031;50.220;10.122;2023-03-01T14:03:57;6.90;;;5.90;;
11943;SDS011;6031;50.220;10.122;2023-03-01T14:06:24;6.40;;;4.60;;
11943;SDS011;6031;50.220;10.122;2023-03-01T14:09:14;7.50;;;5.93;;
11943;SDS011;6031;50.220;10.122;2023-03-01T14:17:16;8.07;;;6.00;;
11943;SDS011;6031;50.220;10.122;2023-03-01T14:19:54;6.40;;;5.80;;
11943;SDS011;6031;50.220;10.122;2023-03-01T14:22:25;8.53;;;6.30;;
11943;SDS011;6031;50.220;10.122;2023-03-01T14:27:37;6.60;;;5.70;;
11943;SDS011;6031;50.220;10.122;2023-03-01T14:30:11;7.60;;;6.13;;
11943;SDS011;6031;50.220;10.122;2023-03-01T14:33:06;7.20;;;5.30;;
11943;SDS011;6031;50.220;10.122;2023-03-01T14:35:49;7.17;;;5.63;;
11943;SDS011;6031;50.220;10.122;2023-03-01T14:38:22;8.50;;;4.67;;
11943;SDS011;6031;50.220;10.122;2023-03-01T14:41:17;9.80;;;5.57;;
11943;SDS011;6031;50.220;10.122;2023-03-01T14:43:50;10.47;;;6.17;;
11943;SDS011;6031;50.220;10.122;2023-03-01T14:46:26;9.10;;;6.27;;
11943;SDS011;6031;50.220;10.122;2023-03-01T14:48:57;7.80;;;5.63;;
11943;SDS011;6031;50.220;10.122;2023-03-01T14:51:28;9.47;;;6.43;;
11943;SDS011;6031;50.220;10.122;2023-03-01T14:53:54;8.37;;;5.10;;
11943;SDS011;6031;50.220;10.122;2023-03-01T14:56:20;8.63;;;6.10;;
11943;SDS011;6031;50.220;10.122;2023-03-01T14:58:46;8.50;;;6.30;;
11943;SDS011;6031;50.220;10.122;2023-03-01T15:01:16;10.27;;;6.70;;
11943;SDS011;6031;50.220;10.122;2023-03-01T15:03:44;7.33;;;6.33;;
11943;SDS011;6031;50.220;10.122;2023-03-01T15:06:14;8.90;;;6.63;;
11943;SDS011;6031;50.220;10.122;2023-03-01T15:08:44;12.20;;;6.17;;
11943;SDS011;6031;50.220;10.122;2023-03-01T15:11:22;7.00;;;5.20;;
11943;SDS011;6031;50.220;10.122;2023-03-01T15:13:58;8.47;;;6.97;;
11943;SDS011;6031;50.220;10.122;2023-03-01T15:16:33;11.43;;;7.50;;
11943;SDS011;6031;50.220;10.122;2023-03-01T15:19:04;9.50;;;7.03;;
11943;SDS011;6031;50.220;10.122;2023-03-01T15:21:35;10.87;;;8.03;;
11943;SDS011;6031;50.220;10.122;2023-03-01T15:26:44;12.23;;;7.03;;
11943;SDS011;6031;50.220;10.122;2023-03-01T15:29:19;11.73;;;8.10;;
11943;SDS011;6031;50.220;10.122;2023-03-01T15:32:00;9.23;;;7.27;;
11943;SDS011;6031;50.220;10.122;2023-03-01T15:36:54;10.50;;;8.50;;
11943;SDS011;6031;50.220;10.122;2023-03-01T15:39:33;12.80;;;8.73;;
11943;SDS011;6031;50.220;10.122;2023-03-01T15:42:12;14.30;;;7.40;;
11943;SDS011;6031;50.220;10.122;2023-03-01T15:47:43;11.17;;;7.90;;
11943;SDS011;6031;50.220;10.122;2023-03-01T15:50:18;13.90;;;8.27;;
11943;SDS011;6031;50.220;10.122;2023-03-01T15:52:49;11.97;;;7.87;;
11943;SDS011;6031;50.220;10.122;2023-03-01T15:55:23;8.90;;;7.83;;
11943;SDS011;6031;50.220;10.122;2023-03-01T15:58:01;10.40;;;8.30;;
11943;SDS011;6031;50.220;10.122;2023-03-01T16:00:29;12.03;;;8.47;;
11943;SDS011;6031;50.220;10.122;2023-03-01T16:02:55;13.37;;;8.70;;
11943;SDS011;6031;50.220;10.122;2023-03-01T16:05:26;9.77;;;7.60;;
11943;SDS011;6031;50.220;10.122;2023-03-01T16:07:56;11.20;;;8.50;;
11943;SDS011;6031;50.220;10.122;2023-03-01T16:10:23;13.20;;;8.70;;
11943;SDS011;6031;50.220;10.122;2023-03-01T16:12:50;13.07;;;9.03;;
11943;SDS011;6031;50.220;10.122;2023-03-01T16:15:27;13.37;;;8.20;;
11943;SDS011;6031;50.220;10.122;2023-03-01T16:17:54;15.87;;;10.93;;
11943;SDS011;6031;50.220;10.122;2023-03-01T16:20:20;13.00;;;8.83;;
11943;SDS011;6031;50.220;10.122;2023-03-01T16:22:47;11.00;;;9.43;;
11943;SDS011;6031;50.220;10.122;2023-03-01T16:25:14;10.63;;;8.47;;